createdAt,value
2017-12-02T00:02:19.048Z,30.50
2017-12-02T00:04:47.447Z,31.20
2017-12-02T00:07:15.537Z,33.60
2017-12-02T00:09:42.990Z,31.40
2017-12-02T00:12:11.288Z,29.80
2017-12-02T00:14:38.738Z,32.20
2017-12-02T00:17:06.287Z,33.07
2017-12-02T00:19:35.116Z,30.53
2017-12-02T00:22:02.810Z,32.03
2017-12-02T00:24:34.880Z,31.07
2017-12-02T00:27:02.431Z,30.33
2017-12-02T00:29:30.072Z,28.93
2017-12-02T00:32:00.100Z,32.33
2017-12-02T00:34:27.745Z,30.47
2017-12-02T00:36:55.814Z,31.00
2017-12-02T00:39:23.318Z,31.03
2017-12-02T00:41:51.736Z,30.27
2017-12-02T00:44:19.210Z,30.83
2017-12-02T00:46:46.796Z,31.47
2017-12-02T00:49:15.137Z,27.87
2017-12-02T00:51:43.374Z,30.93
2017-12-02T00:54:11.752Z,32.10
2017-12-02T00:56:41.335Z,31.90
2017-12-02T00:59:10.703Z,30.73
2017-12-02T01:01:38.330Z,28.10
2017-12-02T01:04:06.085Z,30.37
2017-12-02T01:06:33.790Z,28.43
2017-12-02T01:09:07.217Z,26.80
2017-12-02T01:11:34.711Z,28.03
2017-12-02T01:14:02.274Z,28.27
2017-12-02T01:16:30.008Z,30.53
2017-12-02T01:18:57.967Z,32.80
2017-12-02T01:21:25.459Z,29.40
2017-12-02T01:23:52.918Z,30.43
2017-12-02T01:26:20.462Z,30.17
2017-12-02T01:28:48.205Z,31.40
2017-12-02T01:31:15.724Z,32.80
2017-12-02T01:33:43.292Z,30.47
2017-12-02T01:36:10.973Z,31.43
2017-12-02T01:38:38.467Z,32.57
2017-12-02T01:41:07.609Z,30.70
2017-12-02T01:43:35.082Z,28.33
2017-12-02T01:46:02.561Z,28.47
2017-12-02T01:48:30.427Z,27.57
2017-12-02T01:50:57.950Z,30.40
2017-12-02T01:53:25.553Z,30.50
2017-12-02T01:55:53.143Z,29.77
2017-12-02T01:58:20.643Z,28.60
2017-12-02T02:00:48.222Z,27.50
2017-12-02T02:03:15.701Z,24.70
2017-12-02T02:05:43.377Z,29.57
2017-12-02T02:08:15.936Z,27.80
2017-12-02T02:10:43.379Z,27.53
2017-12-02T02:13:10.861Z,28.30
2017-12-02T02:15:38.384Z,30.90
2017-12-02T02:18:05.855Z,28.30
2017-12-02T02:20:33.437Z,26.77
2017-12-02T02:23:00.928Z,29.47
2017-12-02T02:25:28.449Z,28.23
2017-12-02T02:28:06.124Z,29.77
2017-12-02T02:30:33.727Z,27.63
2017-12-02T02:33:01.265Z,31.40
2017-12-02T02:35:28.750Z,29.87
2017-12-02T02:38:10.721Z,25.43
2017-12-02T02:40:38.151Z,29.17
2017-12-02T02:43:05.674Z,25.33
2017-12-02T02:45:33.175Z,27.80
2017-12-02T02:48:20.143Z,26.33
2017-12-02T02:50:47.768Z,28.93
2017-12-02T02:53:16.306Z,28.20
2017-12-02T02:55:43.898Z,26.70
2017-12-02T02:58:11.656Z,23.93
2017-12-02T03:00:39.178Z,26.90
2017-12-02T03:03:06.689Z,24.80
2017-12-02T03:05:34.233Z,29.03
2017-12-02T03:10:54.312Z,27.80
2017-12-02T03:13:22.146Z,27.70
2017-12-02T03:15:50.003Z,29.80
2017-12-02T03:18:19.204Z,26.87
2017-12-02T03:20:47.885Z,26.90
2017-12-02T03:23:16.031Z,26.33
2017-12-02T03:25:44.115Z,25.63
2017-12-02T03:28:11.684Z,28.43
2017-12-02T03:30:39.451Z,28.47
2017-12-02T03:33:07.084Z,25.20
2017-12-02T03:35:34.847Z,28.60
2017-12-02T03:38:03.847Z,27.00
2017-12-02T03:40:32.897Z,26.70
2017-12-02T03:43:01.645Z,27.40
2017-12-02T03:45:30.005Z,29.30
2017-12-02T03:47:57.498Z,29.00
2017-12-02T03:50:26.289Z,28.27
2017-12-02T03:52:54.455Z,28.40
2017-12-02T03:55:22.417Z,31.90
2017-12-02T03:57:50.205Z,29.87
2017-12-02T04:02:58.178Z,31.40
2017-12-02T04:05:26.262Z,27.70
2017-12-02T04:07:53.911Z,29.30
2017-12-02T04:10:23.587Z,30.67
2017-12-02T04:12:51.562Z,29.07
2017-12-02T04:15:20.172Z,29.70
2017-12-02T04:17:48.060Z,28.73
2017-12-02T04:20:15.632Z,28.57
2017-12-02T04:22:44.190Z,29.17
2017-12-02T04:25:13.596Z,29.67
2017-12-02T04:27:41.153Z,27.77
2017-12-02T04:30:09.399Z,28.27
2017-12-02T04:32:37.196Z,30.20
2017-12-02T04:35:05.039Z,28.27
2017-12-02T04:37:33.152Z,29.60
2017-12-02T04:40:00.775Z,29.97
2017-12-02T04:42:33.588Z,28.13
2017-12-02T04:45:02.096Z,27.23
2017-12-02T04:47:49.701Z,29.77
2017-12-02T04:50:17.946Z,27.57
2017-12-02T04:52:46.383Z,26.27
2017-12-02T04:55:14.440Z,24.33
2017-12-02T04:57:42.210Z,27.87
2017-12-02T05:00:10.556Z,29.70
2017-12-02T05:02:38.204Z,26.60
2017-12-02T05:05:06.047Z,27.33
2017-12-02T05:07:38.771Z,26.30
2017-12-02T05:10:08.322Z,29.70
2017-12-02T05:12:38.015Z,27.87
2017-12-02T05:15:05.629Z,24.97
2017-12-02T05:17:44.712Z,28.53
2017-12-02T05:20:13.236Z,28.00
2017-12-02T05:22:41.862Z,27.47
2017-12-02T05:25:11.439Z,30.87
2017-12-02T05:28:03.499Z,27.40
2017-12-02T05:30:31.998Z,28.93
2017-12-02T05:32:59.926Z,30.40
2017-12-02T05:35:28.264Z,27.00
2017-12-02T05:37:56.586Z,31.03
2017-12-02T05:40:24.590Z,30.50
2017-12-02T05:42:52.409Z,30.87
2017-12-02T05:45:20.659Z,28.40
2017-12-02T05:50:41.497Z,29.63
2017-12-02T05:53:09.717Z,30.83
2017-12-02T05:55:37.506Z,28.10
2017-12-02T05:58:24.490Z,31.07
2017-12-02T06:00:52.204Z,30.70
2017-12-02T06:03:21.298Z,30.20
2017-12-02T06:05:48.987Z,30.80
2017-12-02T06:08:16.577Z,29.67
2017-12-02T06:10:44.295Z,30.27
2017-12-02T06:13:11.781Z,30.23
2017-12-02T06:15:39.331Z,30.40
2017-12-02T06:18:06.929Z,31.63
2017-12-02T06:20:34.509Z,32.37
2017-12-02T06:23:02.051Z,28.93
2017-12-02T06:25:29.542Z,29.23
2017-12-02T06:27:56.972Z,30.13
2017-12-02T06:30:24.463Z,30.47
2017-12-02T06:32:51.923Z,29.57
2017-12-02T06:35:19.396Z,29.83
2017-12-02T06:40:39.691Z,32.00
2017-12-02T06:43:07.244Z,30.63
2017-12-02T06:45:34.834Z,30.20
2017-12-02T06:48:02.339Z,31.33
2017-12-02T06:50:30.176Z,31.50
2017-12-02T06:52:57.922Z,30.70
2017-12-02T06:55:26.513Z,29.03
2017-12-02T06:57:54.022Z,33.20
2017-12-02T07:00:21.499Z,32.17
2017-12-02T07:02:49.017Z,33.93
2017-12-02T07:05:16.617Z,33.23
2017-12-02T07:07:53.780Z,32.13
2017-12-02T07:10:21.324Z,33.00
2017-12-02T07:12:48.818Z,37.13
2017-12-02T07:15:16.293Z,31.53
2017-12-02T07:17:43.997Z,33.60
2017-12-02T07:20:12.315Z,30.50
2017-12-02T07:22:39.824Z,33.30
2017-12-02T07:25:07.380Z,35.63
2017-12-02T07:30:27.650Z,35.00
2017-12-02T07:32:55.485Z,32.97
2017-12-02T07:35:23.003Z,33.90
2017-12-02T07:37:50.801Z,33.50
2017-12-02T07:40:18.423Z,35.13
2017-12-02T07:42:46.806Z,31.47
2017-12-02T07:45:14.333Z,31.97
2017-12-02T07:50:14.579Z,37.13
2017-12-02T07:52:42.033Z,35.30
2017-12-02T07:55:09.623Z,36.07
2017-12-02T07:57:37.202Z,33.57
2017-12-02T08:00:04.782Z,32.87
2017-12-02T08:02:32.285Z,37.30
2017-12-02T08:04:59.737Z,36.57
2017-12-02T08:09:59.867Z,35.57
2017-12-02T08:12:27.371Z,35.37
2017-12-02T08:14:54.853Z,38.07
2017-12-02T08:17:22.338Z,38.10
2017-12-02T08:19:49.821Z,39.60
2017-12-02T08:22:17.363Z,35.97
2017-12-02T08:24:44.825Z,33.97
2017-12-02T08:27:12.344Z,34.67
2017-12-02T08:29:39.885Z,38.50
2017-12-02T08:32:07.495Z,37.50
2017-12-02T08:34:35.024Z,31.83
2017-12-02T08:37:02.515Z,37.87
2017-12-02T08:42:02.902Z,37.43
2017-12-02T08:44:30.406Z,34.70
2017-12-02T08:46:57.888Z,35.90
2017-12-02T08:49:25.404Z,40.17
2017-12-02T08:51:52.877Z,41.20
2017-12-02T08:54:20.392Z,40.13
2017-12-02T08:56:47.893Z,41.67
2017-12-02T08:59:15.324Z,40.13
2017-12-02T09:01:42.813Z,38.20
2017-12-02T09:04:10.257Z,37.67
2017-12-02T09:06:37.747Z,36.63
2017-12-02T09:09:05.503Z,35.30
2017-12-02T09:11:33.002Z,39.83
2017-12-02T09:14:00.520Z,40.93
2017-12-02T09:16:27.996Z,40.63
2017-12-02T09:18:55.550Z,38.67
2017-12-02T09:21:23.050Z,37.47
2017-12-02T09:23:50.596Z,35.87
2017-12-02T09:26:18.155Z,39.63
2017-12-02T09:28:45.755Z,39.17
2017-12-02T09:31:13.274Z,38.50
2017-12-02T09:33:41.013Z,37.73
2017-12-02T09:36:08.478Z,39.17
2017-12-02T09:38:35.991Z,40.90
2017-12-02T09:41:04.325Z,41.07
2017-12-02T09:43:31.787Z,44.27
2017-12-02T09:48:32.195Z,39.73
2017-12-02T09:51:00.985Z,35.97
2017-12-02T09:53:28.456Z,38.57
2017-12-02T09:55:55.961Z,37.63
2017-12-02T09:58:23.503Z,37.50
2017-12-02T10:00:50.949Z,37.80
2017-12-02T10:03:18.460Z,40.57
2017-12-02T10:08:32.942Z,36.57
2017-12-02T10:11:00.422Z,35.17
2017-12-02T10:13:28.017Z,35.37
2017-12-02T10:15:55.561Z,37.67
2017-12-02T10:18:23.051Z,37.40
2017-12-02T10:20:50.528Z,34.17
2017-12-02T10:23:18.053Z,38.17
2017-12-02T10:25:45.635Z,34.60
2017-12-02T10:28:13.149Z,32.73
2017-12-02T10:30:40.718Z,33.70
2017-12-02T10:33:08.290Z,35.47
2017-12-02T10:35:35.801Z,32.53
2017-12-02T10:38:03.282Z,35.40
2017-12-02T10:40:30.750Z,36.33
2017-12-02T10:42:58.225Z,35.77
2017-12-02T10:45:25.708Z,40.30
2017-12-02T10:47:53.193Z,37.87
2017-12-02T10:50:20.681Z,36.87
2017-12-02T10:52:48.124Z,38.53
2017-12-02T10:55:16.587Z,40.83
2017-12-02T10:57:53.717Z,38.40
2017-12-02T11:00:21.309Z,35.17
2017-12-02T11:02:48.827Z,36.20
2017-12-02T11:05:16.416Z,35.60
2017-12-02T11:07:43.946Z,34.63
2017-12-02T11:10:11.464Z,36.60
2017-12-02T11:12:38.994Z,32.60
2017-12-02T11:15:06.713Z,34.13
2017-12-02T11:17:34.328Z,36.30
2017-12-02T11:20:02.010Z,34.20
2017-12-02T11:22:30.539Z,36.37
2017-12-02T11:24:58.062Z,31.70
2017-12-02T11:27:25.574Z,33.83
2017-12-02T11:29:53.121Z,33.47
2017-12-02T11:32:20.681Z,33.93
2017-12-02T11:34:48.199Z,32.67
2017-12-02T11:37:15.698Z,31.60
2017-12-02T11:39:43.160Z,29.77
2017-12-02T11:42:10.696Z,28.30
2017-12-02T11:44:38.160Z,31.60
2017-12-02T11:47:05.706Z,32.33
2017-12-02T11:49:33.399Z,32.37
2017-12-02T11:52:00.960Z,27.80
2017-12-02T11:54:28.462Z,29.77
2017-12-02T11:56:55.970Z,29.67
2017-12-02T11:59:23.507Z,29.03
2017-12-02T12:01:50.970Z,28.00
2017-12-02T12:04:18.494Z,31.10
2017-12-02T12:06:46.444Z,30.70
2017-12-02T12:09:19.179Z,31.27
2017-12-02T12:11:46.986Z,30.97
2017-12-02T12:14:14.490Z,28.03
2017-12-02T12:16:42.201Z,30.80
2017-12-02T12:19:09.724Z,27.27
2017-12-02T12:21:37.270Z,28.87
2017-12-02T12:24:04.841Z,29.57
2017-12-02T12:26:32.725Z,27.07
2017-12-02T12:29:00.331Z,29.20
2017-12-02T12:31:27.812Z,27.40
2017-12-02T12:33:55.290Z,28.53
2017-12-02T12:36:22.801Z,29.57
2017-12-02T12:38:51.537Z,30.20
2017-12-02T12:41:19.192Z,32.03
2017-12-02T12:43:46.861Z,30.67
2017-12-02T12:46:14.443Z,31.73
2017-12-02T12:48:41.994Z,31.57
2017-12-02T12:51:09.578Z,29.83
2017-12-02T12:53:37.467Z,27.87
2017-12-02T12:56:05.033Z,30.20
2017-12-02T12:58:32.495Z,27.40
2017-12-02T13:01:00.124Z,28.97
2017-12-02T13:03:28.101Z,30.97
2017-12-02T13:05:55.678Z,30.33
2017-12-02T13:08:37.455Z,31.40
2017-12-02T13:11:05.729Z,29.10
2017-12-02T13:13:33.445Z,29.17
2017-12-02T13:16:00.997Z,26.30
2017-12-02T13:18:28.626Z,31.07
2017-12-02T13:20:56.293Z,28.30
2017-12-02T13:23:24.021Z,29.80
2017-12-02T13:25:51.709Z,29.30
2017-12-02T13:28:33.515Z,28.47
2017-12-02T13:31:01.062Z,29.90
2017-12-02T13:33:28.555Z,30.83
2017-12-02T13:35:56.084Z,28.63
2017-12-02T13:38:23.616Z,27.90
2017-12-02T13:40:51.091Z,32.40
2017-12-02T13:43:18.636Z,28.80
2017-12-02T13:45:46.125Z,28.67
2017-12-02T13:48:13.624Z,28.97
2017-12-02T13:50:41.119Z,28.93
2017-12-02T13:53:08.670Z,28.53
2017-12-02T13:55:36.226Z,29.23
2017-12-02T13:58:04.774Z,28.87
2017-12-02T14:00:33.004Z,27.93
2017-12-02T14:03:00.715Z,26.50
2017-12-02T14:05:29.136Z,27.37
2017-12-02T14:07:56.669Z,29.37
2017-12-02T14:10:24.212Z,36.00
2017-12-02T14:12:51.755Z,33.40
2017-12-02T14:15:19.275Z,30.27
2017-12-02T14:17:46.757Z,29.27
2017-12-02T14:20:14.837Z,33.37
2017-12-02T14:22:42.573Z,30.27
2017-12-02T14:25:10.113Z,36.23
2017-12-02T14:27:37.904Z,32.73
2017-12-02T14:30:06.348Z,32.60
2017-12-02T14:32:33.813Z,30.83
2017-12-02T14:35:02.091Z,30.30
2017-12-02T14:40:23.251Z,33.33
2017-12-02T14:42:50.777Z,29.77
2017-12-02T14:45:18.279Z,33.00
2017-12-02T14:50:38.168Z,34.40
2017-12-02T14:53:05.806Z,32.67
2017-12-02T14:55:33.296Z,29.70
2017-12-02T14:58:05.828Z,33.93
2017-12-02T15:00:33.295Z,36.70
2017-12-02T15:03:00.844Z,33.47
2017-12-02T15:05:28.316Z,31.37
2017-12-02T15:07:55.890Z,30.80
2017-12-02T15:10:23.432Z,33.37
2017-12-02T15:12:51.137Z,33.00
2017-12-02T15:15:18.766Z,31.13
2017-12-02T15:17:47.184Z,30.13
2017-12-02T15:20:18.861Z,33.07
2017-12-02T15:22:46.445Z,32.10
2017-12-02T15:25:18.027Z,27.93
2017-12-02T15:27:46.667Z,31.00
2017-12-02T15:30:15.243Z,32.10
2017-12-02T15:32:43.563Z,28.63
2017-12-02T15:35:11.923Z,27.60
2017-12-02T15:37:41.485Z,29.77
2017-12-02T15:40:09.152Z,30.20
2017-12-02T15:42:36.952Z,29.47
2017-12-02T15:45:04.752Z,31.03
2017-12-02T15:53:18.410Z,28.97
2017-12-02T15:55:46.051Z,26.80
2017-12-02T16:00:47.029Z,27.07
2017-12-02T16:03:14.640Z,26.43
2017-12-02T16:05:42.770Z,25.07
2017-12-02T16:08:10.318Z,24.47
2017-12-02T16:10:37.841Z,21.57
2017-12-02T16:13:05.428Z,25.40
2017-12-02T16:15:32.882Z,21.33
2017-12-02T16:18:00.619Z,23.67
2017-12-02T16:20:28.238Z,23.57
2017-12-02T16:22:57.096Z,24.43
2017-12-02T16:25:24.559Z,30.57
2017-12-02T16:27:57.281Z,29.50
2017-12-02T16:30:24.905Z,27.87
2017-12-02T16:32:52.348Z,28.67
2017-12-02T16:35:20.043Z,27.77
2017-12-02T16:37:47.987Z,27.77
2017-12-02T16:40:15.626Z,25.83
2017-12-02T16:42:43.983Z,27.63
2017-12-02T16:45:11.752Z,23.87
2017-12-02T16:47:39.448Z,24.33
2017-12-02T16:50:07.014Z,28.30
2017-12-02T16:52:35.327Z,21.80
2017-12-02T16:55:03.679Z,24.50
2017-12-02T16:57:31.319Z,23.30
2017-12-02T16:59:58.796Z,23.97
2017-12-02T17:02:26.289Z,25.33
2017-12-02T17:04:55.265Z,23.33
2017-12-02T17:07:37.023Z,25.27
2017-12-02T17:10:04.536Z,23.40
2017-12-02T17:12:32.230Z,25.17
2017-12-02T17:14:59.789Z,22.93
2017-12-02T17:17:27.359Z,21.33
2017-12-02T17:19:56.608Z,24.97
2017-12-02T17:22:24.074Z,24.57
2017-12-02T17:24:51.850Z,23.77
2017-12-02T17:27:21.095Z,24.80
2017-12-02T17:29:48.679Z,24.93
2017-12-02T17:32:16.245Z,25.20
2017-12-02T17:34:44.915Z,24.47
2017-12-02T17:37:15.191Z,26.13
2017-12-02T17:39:43.812Z,26.50
2017-12-02T17:42:11.602Z,22.70
2017-12-02T17:44:39.150Z,24.67
2017-12-02T17:47:09.858Z,23.07
2017-12-02T17:49:37.367Z,28.07
2017-12-02T17:52:04.851Z,33.33
2017-12-02T17:54:32.306Z,30.23
2017-12-02T17:56:59.763Z,36.40
2017-12-02T17:59:27.888Z,36.43
2017-12-02T18:01:59.650Z,38.43
2017-12-02T18:04:28.179Z,33.07
2017-12-02T18:06:57.208Z,30.87
2017-12-02T18:12:10.410Z,29.03
2017-12-02T18:14:41.519Z,26.13
2017-12-02T18:17:11.642Z,27.33
2017-12-02T18:19:42.726Z,25.50
2017-12-02T18:22:27.120Z,29.50
2017-12-02T18:24:57.955Z,30.80
2017-12-02T18:27:26.657Z,30.57
2017-12-02T18:29:56.973Z,32.37
2017-12-02T18:32:25.634Z,29.57
2017-12-02T18:34:54.957Z,28.67
2017-12-02T18:40:28.049Z,31.03
2017-12-02T18:42:58.120Z,27.30
2017-12-02T18:45:26.691Z,30.13
2017-12-02T18:48:00.522Z,33.33
2017-12-02T18:55:50.696Z,30.90
2017-12-02T18:58:25.345Z,30.83
2017-12-02T19:08:01.319Z,36.90
2017-12-02T19:10:38.941Z,32.90
2017-12-02T19:13:07.740Z,32.50
2017-12-02T19:15:37.910Z,31.63
2017-12-02T19:18:05.491Z,33.73
2017-12-02T19:20:33.751Z,32.80
2017-12-02T19:23:01.921Z,34.87
2017-12-02T19:25:29.869Z,33.53
2017-12-02T19:28:11.611Z,34.23
2017-12-02T19:30:39.069Z,33.63
2017-12-02T19:33:07.200Z,34.30
2017-12-02T19:35:34.658Z,33.90
2017-12-02T19:38:02.902Z,32.73
2017-12-02T19:40:30.798Z,28.63
2017-12-02T19:42:58.365Z,28.37
2017-12-02T19:45:25.874Z,30.97
2017-12-02T19:47:53.421Z,31.13
2017-12-02T19:50:22.807Z,32.13
2017-12-02T19:52:50.981Z,27.20
2017-12-02T19:55:18.482Z,27.83
2017-12-02T19:57:46.189Z,27.50
2017-12-02T20:00:15.443Z,24.03
2017-12-02T20:02:43.111Z,24.90
2017-12-02T20:05:10.764Z,26.60
2017-12-02T20:07:47.996Z,23.97
2017-12-02T20:12:52.079Z,26.13
2017-12-02T20:15:21.492Z,28.33
2017-12-02T20:17:49.213Z,26.10
2017-12-02T20:20:17.343Z,25.60
2017-12-02T20:22:44.976Z,26.67
2017-12-02T20:25:13.126Z,30.10
2017-12-02T20:27:59.903Z,29.83
2017-12-02T20:30:27.390Z,27.97
2017-12-02T20:32:54.860Z,30.33
2017-12-02T20:35:22.333Z,24.80
2017-12-02T20:37:50.264Z,23.13
2017-12-02T20:40:17.760Z,32.07
2017-12-02T20:42:45.497Z,25.30
2017-12-02T20:45:13.691Z,27.30
2017-12-02T20:47:41.477Z,25.63
2017-12-02T20:50:09.213Z,22.80
2017-12-02T20:52:36.791Z,23.30
2017-12-02T20:55:04.330Z,25.10
2017-12-02T20:57:42.600Z,26.37
2017-12-02T21:00:12.110Z,27.30
2017-12-02T21:02:39.925Z,24.80
2017-12-02T21:05:07.397Z,23.00
2017-12-02T21:10:51.030Z,22.40
2017-12-02T21:13:18.956Z,25.47
2017-12-02T21:15:48.207Z,25.43
2017-12-02T21:18:15.687Z,24.27
2017-12-02T21:20:43.232Z,24.80
2017-12-02T21:23:11.173Z,24.43
2017-12-02T21:25:38.859Z,25.20
2017-12-02T21:28:07.424Z,22.53
2017-12-02T21:30:35.467Z,22.90
2017-12-02T21:33:04.204Z,24.17
2017-12-02T21:35:31.808Z,21.87
2017-12-02T21:37:59.269Z,22.00
2017-12-02T21:40:26.752Z,23.10
2017-12-02T21:42:54.286Z,21.07
2017-12-02T21:45:23.595Z,20.13
2017-12-02T21:47:51.308Z,20.60
2017-12-02T21:50:18.809Z,19.00
2017-12-02T21:52:46.304Z,21.73
2017-12-02T21:55:13.737Z,23.37
2017-12-02T21:57:41.280Z,21.73
2017-12-02T22:00:08.933Z,19.90
2017-12-02T22:02:36.913Z,20.90
2017-12-02T22:05:04.702Z,18.57
2017-12-02T22:07:32.326Z,19.20
2017-12-02T22:10:00.119Z,19.90
2017-12-02T22:12:27.836Z,20.37
2017-12-02T22:14:56.363Z,22.20
2017-12-02T22:17:23.884Z,25.40
2017-12-02T22:19:52.199Z,18.97
2017-12-02T22:22:19.737Z,26.27
2017-12-02T22:24:47.242Z,23.83
2017-12-02T22:27:14.749Z,18.50
2017-12-02T22:29:42.482Z,21.00
2017-12-02T22:32:10.026Z,19.40
2017-12-02T22:34:37.596Z,21.30
2017-12-02T22:37:05.123Z,18.27
2017-12-02T22:39:32.602Z,21.93
2017-12-02T22:42:00.372Z,18.07
2017-12-02T22:44:27.930Z,15.83
2017-12-02T22:46:55.503Z,22.93
2017-12-02T22:49:23.055Z,16.67
2017-12-02T22:51:50.576Z,18.30
2017-12-02T22:54:18.164Z,18.80
2017-12-02T22:56:45.756Z,22.23
2017-12-02T22:59:18.267Z,17.30
2017-12-02T23:01:45.841Z,16.30
2017-12-02T23:04:13.563Z,19.43
2017-12-02T23:06:41.040Z,18.43
2017-12-02T23:09:08.973Z,16.83
2017-12-02T23:11:36.473Z,18.10
2017-12-02T23:14:04.009Z,18.93
2017-12-02T23:16:31.594Z,18.60
2017-12-02T23:18:59.149Z,17.80
2017-12-02T23:21:26.845Z,18.40
2017-12-02T23:23:54.778Z,18.97
2017-12-02T23:26:22.255Z,18.40
2017-12-02T23:28:49.693Z,18.47
2017-12-02T23:31:17.174Z,18.07
2017-12-02T23:33:44.602Z,17.83
2017-12-02T23:36:12.055Z,15.40
2017-12-02T23:41:32.299Z,17.80
2017-12-02T23:43:59.823Z,16.57
2017-12-02T23:46:27.537Z,17.00
2017-12-02T23:48:55.879Z,18.10
2017-12-02T23:51:23.309Z,18.30
2017-12-02T23:53:50.864Z,16.10
2017-12-02T23:56:18.328Z,16.50
2017-12-02T23:58:45.846Z,17.87
